createdAt,value
2022-10-07T00:00:57.636Z,4.70
2022-10-07T00:03:26.515Z,4.43
2022-10-07T00:06:15.373Z,4.60
2022-10-07T00:08:45.671Z,4.45
2022-10-07T00:11:23.075Z,4.45
2022-10-07T00:13:53.802Z,4.50
2022-10-07T00:16:26.833Z,4.65
2022-10-07T00:18:58.681Z,4.78
2022-10-07T00:21:28.841Z,4.28
2022-10-07T00:23:56.500Z,4.70
2022-10-07T00:26:26.638Z,5.03
2022-10-07T00:28:55.343Z,4.38
2022-10-07T00:31:26.050Z,4.40
2022-10-07T00:33:55.197Z,4.90
2022-10-07T00:36:33.770Z,4.10
2022-10-07T00:39:07.932Z,4.80
2022-10-07T00:41:42.045Z,4.20
2022-10-07T00:44:31.290Z,5.03
2022-10-07T00:47:01.147Z,4.53
2022-10-07T00:49:29.566Z,4.40
2022-10-07T00:51:57.948Z,4.68
2022-10-07T00:54:25.556Z,4.85
2022-10-07T00:56:53.366Z,4.72
2022-10-07T00:59:21.473Z,4.65
2022-10-07T01:01:48.947Z,4.30
2022-10-07T01:04:17.253Z,4.63
2022-10-07T01:06:45.736Z,4.65
2022-10-07T01:09:14.380Z,5.22
2022-10-07T01:11:56.975Z,4.00
2022-10-07T01:15:03.374Z,5.00
2022-10-07T01:17:47.907Z,4.43
2022-10-07T01:20:23.763Z,4.45
2022-10-07T01:22:57.103Z,4.10
2022-10-07T01:25:39.246Z,4.50
2022-10-07T01:28:22.687Z,4.32
2022-10-07T01:30:58.202Z,4.35
2022-10-07T01:33:29.320Z,3.92
2022-10-07T01:36:02.749Z,4.68
2022-10-07T01:38:33.682Z,4.60
2022-10-07T01:41:23.107Z,4.20
2022-10-07T01:43:53.743Z,4.30
2022-10-07T01:46:27.028Z,3.83
2022-10-07T01:48:57.641Z,4.18
2022-10-07T01:51:28.637Z,3.55
2022-10-07T01:54:16.327Z,4.10
2022-10-07T01:57:05.199Z,4.28
2022-10-07T02:00:12.571Z,4.22
2022-10-07T02:03:17.792Z,3.88
2022-10-07T02:05:54.897Z,4.07
2022-10-07T02:08:42.347Z,4.22
2022-10-07T02:14:15.341Z,3.72
2022-10-07T02:16:45.602Z,3.50
2022-10-07T02:19:35.959Z,4.15
2022-10-07T02:22:04.225Z,3.85
2022-10-07T02:24:38.859Z,3.92
2022-10-07T02:27:12.640Z,3.97
2022-10-07T02:29:44.319Z,3.95
2022-10-07T02:32:17.808Z,3.65
2022-10-07T02:34:48.934Z,4.00
2022-10-07T02:37:26.794Z,4.07
2022-10-07T02:42:58.651Z,3.55
2022-10-07T02:45:45.994Z,3.72
2022-10-07T02:48:28.626Z,3.35
2022-10-07T02:51:00.459Z,4.28
2022-10-07T02:53:29.832Z,4.35
2022-10-07T02:55:59.780Z,3.85
2022-10-07T02:58:27.599Z,3.67
2022-10-07T03:00:59.735Z,3.95
2022-10-07T03:03:28.159Z,4.30
2022-10-07T03:06:00.683Z,3.65
2022-10-07T03:08:29.456Z,3.92
2022-10-07T03:10:57.712Z,3.78
2022-10-07T03:13:26.281Z,3.80
2022-10-07T03:15:58.478Z,3.85
2022-10-07T03:18:28.279Z,3.63
2022-10-07T03:21:05.334Z,3.58
2022-10-07T03:23:33.215Z,3.90
2022-10-07T03:26:01.415Z,3.97
2022-10-07T03:28:33.205Z,3.33
2022-10-07T03:31:10.080Z,3.13
2022-10-07T03:33:41.980Z,3.70
2022-10-07T03:36:10.246Z,3.38
2022-10-07T03:38:40.414Z,4.40
2022-10-07T03:41:09.478Z,3.80
2022-10-07T03:43:37.687Z,3.33
2022-10-07T03:46:06.907Z,3.55
2022-10-07T03:48:38.211Z,4.25
2022-10-07T03:51:06.213Z,3.65
2022-10-07T03:53:38.355Z,2.92
2022-10-07T03:56:07.228Z,3.90
2022-10-07T03:58:36.421Z,3.00
2022-10-07T04:01:10.039Z,3.60
2022-10-07T04:03:39.647Z,3.08
2022-10-07T04:06:08.247Z,3.70
2022-10-07T04:08:36.448Z,3.58
2022-10-07T04:11:06.360Z,3.55
2022-10-07T04:13:36.378Z,3.33
2022-10-07T04:16:10.685Z,3.92
2022-10-07T04:18:39.187Z,3.85
2022-10-07T04:21:08.764Z,3.80
2022-10-07T04:23:37.715Z,4.00
2022-10-07T04:26:10.917Z,3.33
2022-10-07T04:28:42.751Z,4.07
2022-10-07T04:31:18.008Z,3.47
2022-10-07T04:33:48.135Z,3.53
2022-10-07T04:36:21.726Z,3.40
2022-10-07T04:38:54.823Z,3.15
2022-10-07T04:41:27.385Z,3.10
2022-10-07T04:43:57.980Z,3.42
2022-10-07T04:46:28.969Z,3.15
2022-10-07T04:49:10.040Z,3.10
2022-10-07T04:51:37.698Z,3.22
2022-10-07T04:54:05.440Z,3.03
2022-10-07T04:56:39.431Z,3.58
2022-10-07T04:59:09.296Z,3.35
2022-10-07T05:01:39.304Z,3.45
2022-10-07T05:04:07.188Z,3.20
2022-10-07T05:06:34.656Z,3.25
2022-10-07T05:09:02.110Z,3.13
2022-10-07T05:11:33.530Z,2.90
2022-10-07T05:14:07.748Z,3.50
2022-10-07T05:16:37.117Z,3.20
2022-10-07T05:19:05.930Z,3.13
2022-10-07T05:21:33.816Z,3.60
2022-10-07T05:24:02.475Z,3.08
2022-10-07T05:26:35.152Z,3.00
2022-10-07T05:29:04.454Z,3.33
2022-10-07T05:31:38.613Z,3.50
2022-10-07T05:34:08.051Z,3.08
2022-10-07T05:36:36.425Z,3.58
2022-10-07T05:39:06.359Z,3.42
2022-10-07T05:41:49.183Z,3.35
2022-10-07T05:44:19.984Z,3.20
2022-10-07T05:46:49.830Z,3.17
2022-10-07T05:49:18.229Z,3.20
2022-10-07T05:51:46.088Z,3.40
2022-10-07T05:54:13.749Z,3.63
2022-10-07T05:56:44.577Z,3.17
2022-10-07T05:59:12.040Z,3.45
2022-10-07T06:01:42.798Z,3.20
2022-10-07T06:04:15.114Z,3.38
2022-10-07T06:06:46.127Z,3.30
2022-10-07T06:09:33.199Z,3.10
2022-10-07T06:12:24.270Z,2.97
2022-10-07T06:14:53.816Z,3.78
2022-10-07T06:17:21.267Z,3.20
2022-10-07T06:19:51.004Z,3.47
2022-10-07T06:22:20.007Z,2.78
2022-10-07T06:24:48.197Z,3.38
2022-10-07T06:27:16.171Z,3.30
2022-10-07T06:29:44.792Z,3.15
2022-10-07T06:32:12.567Z,3.20
2022-10-07T06:34:41.696Z,3.08
2022-10-07T06:37:10.098Z,3.17
2022-10-07T06:39:37.729Z,3.17
2022-10-07T06:42:05.566Z,3.38
2022-10-07T06:44:44.559Z,2.85
2022-10-07T06:47:16.319Z,3.45
2022-10-07T06:49:45.877Z,3.60
2022-10-07T06:52:13.643Z,3.10
2022-10-07T06:54:42.746Z,3.65
2022-10-07T06:57:40.518Z,3.10
2022-10-07T07:00:01.053Z,3.25
2022-10-07T07:02:30.530Z,3.03
2022-10-07T07:04:59.320Z,3.38
2022-10-07T07:07:27.645Z,2.58
2022-10-07T07:12:25.444Z,2.70
2022-10-07T07:14:54.829Z,3.10
2022-10-07T07:17:22.644Z,1.95
2022-10-07T07:19:50.116Z,2.47
2022-10-07T07:22:18.783Z,2.63
2022-10-07T07:24:46.751Z,2.70
2022-10-07T07:27:15.092Z,3.28
2022-10-07T07:29:44.022Z,3.17
2022-10-07T07:32:13.073Z,4.18
2022-10-07T07:34:43.741Z,3.67
2022-10-07T07:37:20.062Z,3.63
2022-10-07T07:39:51.426Z,3.97
2022-10-07T07:42:19.109Z,3.42
2022-10-07T07:44:50.017Z,3.70
2022-10-07T07:47:18.800Z,3.80
2022-10-07T07:49:49.199Z,2.72
2022-10-07T07:52:25.506Z,3.30
2022-10-07T07:54:57.877Z,2.83
2022-10-07T07:57:27.222Z,2.83
2022-10-07T07:59:55.501Z,3.25
2022-10-07T08:02:23.834Z,3.00
2022-10-07T08:04:53.882Z,3.60
2022-10-07T08:07:21.972Z,3.15
2022-10-07T08:09:50.968Z,3.13
2022-10-07T08:14:49.296Z,2.90
2022-10-07T08:17:17.629Z,3.30
2022-10-07T08:19:45.665Z,3.85
2022-10-07T08:22:17.495Z,3.08
2022-10-07T08:24:47.963Z,2.90
2022-10-07T08:27:19.040Z,2.92
2022-10-07T08:32:14.091Z,2.95
2022-10-07T08:34:41.499Z,2.73
2022-10-07T08:37:08.919Z,2.90
2022-10-07T08:39:36.569Z,2.63
2022-10-07T08:42:23.468Z,3.08
2022-10-07T08:44:51.304Z,2.92
2022-10-07T08:47:38.555Z,2.42
2022-10-07T08:50:41.220Z,2.63
2022-10-07T08:53:21.134Z,3.00
2022-10-07T08:56:13.013Z,2.92
2022-10-07T08:58:46.676Z,3.08
2022-10-07T09:01:26.111Z,2.80
2022-10-07T09:04:07.783Z,2.50
2022-10-07T09:06:52.032Z,2.63
2022-10-07T09:09:30.252Z,3.08
2022-10-07T09:11:59.734Z,2.75
2022-10-07T09:14:44.475Z,2.75
2022-10-07T09:17:19.054Z,2.80
2022-10-07T09:19:55.154Z,2.65
2022-10-07T09:22:32.215Z,2.03
2022-10-07T09:25:18.912Z,3.13
2022-10-07T09:27:46.755Z,2.72
2022-10-07T09:30:15.891Z,2.83
2022-10-07T09:32:48.679Z,2.80
2022-10-07T09:35:22.537Z,2.97
2022-10-07T09:38:09.451Z,2.70
2022-10-07T09:41:04.369Z,3.03
2022-10-07T09:43:34.387Z,2.50
2022-10-07T09:46:02.018Z,2.53
2022-10-07T09:48:33.253Z,2.65
2022-10-07T09:51:18.461Z,2.80
2022-10-07T09:54:16.966Z,2.45
2022-10-07T09:56:57.546Z,2.53
2022-10-07T09:59:28.260Z,2.78
2022-10-07T10:02:18.338Z,2.78
2022-10-07T10:04:52.257Z,2.65
2022-10-07T10:07:32.618Z,2.47
2022-10-07T10:10:23.955Z,2.63
2022-10-07T10:12:53.480Z,2.28
2022-10-07T10:15:40.476Z,2.50
2022-10-07T10:18:32.855Z,2.37
2022-10-07T10:21:21.244Z,2.53
2022-10-07T10:23:53.961Z,2.60
2022-10-07T10:26:41.891Z,2.13
2022-10-07T10:31:58.280Z,2.27
2022-10-07T10:34:44.368Z,2.42
2022-10-07T10:37:20.440Z,2.13
2022-10-07T10:40:09.915Z,2.47
2022-10-07T10:42:56.164Z,2.20
2022-10-07T10:45:59.414Z,1.88
2022-10-07T10:48:38.129Z,2.58
2022-10-07T10:51:05.946Z,2.20
2022-10-07T10:53:51.932Z,2.40
2022-10-07T10:56:43.682Z,1.77
2022-10-07T10:59:14.157Z,2.22
2022-10-07T11:01:44.236Z,1.92
2022-10-07T11:04:42.303Z,1.80
2022-10-07T11:07:21.717Z,1.80
2022-10-07T11:09:54.259Z,1.90
2022-10-07T11:12:41.403Z,1.50
2022-10-07T11:15:21.283Z,1.60
2022-10-07T11:17:51.412Z,1.50
2022-10-07T11:20:33.703Z,1.80
2022-10-07T11:23:19.566Z,1.60
2022-10-07T11:26:15.063Z,1.45
2022-10-07T11:28:44.695Z,1.23
2022-10-07T11:31:28.344Z,1.50
2022-10-07T11:34:18.366Z,1.70
2022-10-07T11:36:55.625Z,1.30
2022-10-07T11:39:24.179Z,1.50
2022-10-07T11:42:14.705Z,1.55
2022-10-07T11:44:53.354Z,1.50
2022-10-07T11:47:25.135Z,1.70
2022-10-07T11:50:09.200Z,1.63
2022-10-07T11:52:42.270Z,1.23
2022-10-07T11:55:18.148Z,1.50
2022-10-07T11:57:53.991Z,1.63
2022-10-07T12:00:36.560Z,2.13
2022-10-07T12:03:36.393Z,1.60
2022-10-07T12:06:11.429Z,2.00
2022-10-07T12:08:41.970Z,1.90
2022-10-07T12:11:12.499Z,2.03
2022-10-07T12:13:49.607Z,2.00
2022-10-07T12:16:31.936Z,1.73
2022-10-07T12:19:23.664Z,1.80
2022-10-07T12:22:00.294Z,1.70
2022-10-07T12:24:29.074Z,1.73
2022-10-07T12:27:16.372Z,1.73
2022-10-07T12:30:02.622Z,1.77
2022-10-07T12:33:00.765Z,1.73
2022-10-07T12:35:34.497Z,1.60
2022-10-07T12:38:22.718Z,1.77
2022-10-07T12:40:59.840Z,1.30
2022-10-07T12:43:41.257Z,1.50
2022-10-07T12:46:15.112Z,1.58
2022-10-07T12:48:48.058Z,1.70
2022-10-07T12:51:28.715Z,2.50
2022-10-07T12:53:59.368Z,1.98
2022-10-07T12:56:29.179Z,1.75
2022-10-07T12:59:21.869Z,1.70
2022-10-07T13:02:11.635Z,1.33
2022-10-07T13:05:16.503Z,1.38
2022-10-07T13:08:21.292Z,1.55
2022-10-07T13:11:17.498Z,1.55
2022-10-07T13:14:00.056Z,1.50
2022-10-07T13:16:55.110Z,1.70
2022-10-07T13:19:46.789Z,1.80
2022-10-07T13:22:18.981Z,1.80
2022-10-07T13:24:54.540Z,1.60
2022-10-07T13:27:28.264Z,1.80
2022-10-07T13:29:58.040Z,1.50
2022-10-07T13:32:34.246Z,2.00
2022-10-07T13:35:36.257Z,1.50
2022-10-07T13:38:06.527Z,1.80
2022-10-07T13:40:35.401Z,1.98
2022-10-07T13:43:07.037Z,1.83
2022-10-07T13:45:45.273Z,1.70
2022-10-07T13:48:18.025Z,1.80
2022-10-07T13:50:46.074Z,1.80
2022-10-07T13:53:41.543Z,1.60
2022-10-07T13:56:25.934Z,1.50
2022-10-07T13:58:55.545Z,1.60
2022-10-07T14:01:29.680Z,1.85
2022-10-07T14:04:00.987Z,1.63
2022-10-07T14:06:48.655Z,1.75
2022-10-07T14:09:22.065Z,1.95
2022-10-07T14:11:55.405Z,1.80
2022-10-07T14:14:33.742Z,1.45
2022-10-07T14:17:07.147Z,1.90
2022-10-07T14:19:34.915Z,1.70
2022-10-07T14:22:04.753Z,1.60
2022-10-07T14:24:32.553Z,1.60
2022-10-07T14:27:00.415Z,1.50
2022-10-07T14:29:28.006Z,1.63
2022-10-07T14:32:37.625Z,1.83
2022-10-07T14:35:23.020Z,2.33
2022-10-07T14:37:50.577Z,1.90
2022-10-07T14:40:23.767Z,2.50
2022-10-07T14:42:54.242Z,2.00
2022-10-07T14:45:24.649Z,2.05
2022-10-07T14:47:52.399Z,1.98
2022-10-07T14:50:20.071Z,2.42
2022-10-07T14:52:52.041Z,1.80
2022-10-07T14:55:24.684Z,1.90
2022-10-07T14:57:52.798Z,2.20
2022-10-07T15:00:22.994Z,1.83
2022-10-07T15:02:51.408Z,1.92
2022-10-07T15:05:19.135Z,1.92
2022-10-07T15:07:46.698Z,1.73
2022-10-07T15:10:23.073Z,1.80
2022-10-07T15:12:51.245Z,1.92
2022-10-07T15:15:19.018Z,1.77
2022-10-07T15:17:46.623Z,1.83
2022-10-07T15:20:15.649Z,1.52
2022-10-07T15:22:45.687Z,1.60
2022-10-07T15:25:15.318Z,1.90
2022-10-07T15:27:43.027Z,1.90
2022-10-07T15:30:11.290Z,1.67
2022-10-07T15:35:07.432Z,2.20
2022-10-07T15:37:34.910Z,1.73
2022-10-07T15:40:02.482Z,1.88
2022-10-07T15:42:30.183Z,1.80
2022-10-07T15:44:57.655Z,2.10
2022-10-07T15:47:27.811Z,2.00
2022-10-07T15:49:55.239Z,1.70
2022-10-07T15:52:22.961Z,1.90
2022-10-07T15:54:51.012Z,2.03
2022-10-07T15:59:46.000Z,1.60
2022-10-07T16:02:16.379Z,2.15
2022-10-07T16:04:45.286Z,2.03
2022-10-07T16:07:13.220Z,2.00
2022-10-07T16:09:40.985Z,1.88
2022-10-07T16:12:08.878Z,1.50
2022-10-07T16:14:36.317Z,1.77
2022-10-07T16:17:04.209Z,2.00
2022-10-07T16:19:31.682Z,2.38
2022-10-07T16:21:59.471Z,2.10
2022-10-07T16:24:32.513Z,2.00
2022-10-07T16:27:02.404Z,2.35
2022-10-07T16:29:48.295Z,2.00
2022-10-07T16:32:15.929Z,2.40
2022-10-07T16:34:44.431Z,2.65
2022-10-07T16:37:12.506Z,2.03
2022-10-07T16:39:40.062Z,2.17
2022-10-07T16:42:08.072Z,2.00
2022-10-07T16:44:38.762Z,2.60
2022-10-07T16:47:06.439Z,2.10
2022-10-07T16:49:36.349Z,2.45
2022-10-07T16:52:04.416Z,2.47
2022-10-07T16:54:35.265Z,2.15
2022-10-07T16:57:02.870Z,2.13
2022-10-07T16:59:30.827Z,2.17
2022-10-07T17:02:02.254Z,2.35
2022-10-07T17:04:29.869Z,2.40
2022-10-07T17:06:58.167Z,2.80
2022-10-07T17:11:53.208Z,2.63
2022-10-07T17:14:21.795Z,2.28
2022-10-07T17:16:56.168Z,2.45
2022-10-07T17:19:26.105Z,2.75
2022-10-07T17:21:55.500Z,2.53
2022-10-07T17:24:23.859Z,2.50
2022-10-07T17:26:52.884Z,2.40
2022-10-07T17:29:21.835Z,2.25
2022-10-07T17:31:50.979Z,2.75
2022-10-07T17:34:20.669Z,2.20
2022-10-07T17:36:48.681Z,2.85
2022-10-07T17:39:17.351Z,3.05
2022-10-07T17:41:45.055Z,3.28
2022-10-07T17:44:13.070Z,2.50
2022-10-07T17:46:41.606Z,2.67
2022-10-07T17:49:13.433Z,2.75
2022-10-07T17:51:45.044Z,2.50
2022-10-07T17:54:13.772Z,2.40
2022-10-07T17:56:44.407Z,2.55
2022-10-07T17:59:12.287Z,2.17
2022-10-07T18:01:39.893Z,3.15
2022-10-07T18:04:11.379Z,2.75
2022-10-07T18:06:39.947Z,2.58
2022-10-07T18:09:09.434Z,2.58
2022-10-07T18:11:55.392Z,2.42
2022-10-07T18:14:42.794Z,2.90
2022-10-07T18:17:11.259Z,3.70
2022-10-07T18:19:41.526Z,4.03
2022-10-07T18:22:09.589Z,3.60
2022-10-07T18:24:37.109Z,4.93
2022-10-07T18:27:04.594Z,3.42
2022-10-07T18:29:38.013Z,3.85
2022-10-07T18:32:07.057Z,3.67
2022-10-07T18:34:34.984Z,4.15
2022-10-07T18:37:02.592Z,3.83
2022-10-07T18:39:30.140Z,3.60
2022-10-07T18:41:58.222Z,3.40
2022-10-07T18:44:26.081Z,4.93
2022-10-07T18:46:53.559Z,4.60
2022-10-07T18:49:21.128Z,5.95
2022-10-07T18:51:50.864Z,3.03
2022-10-07T18:54:19.512Z,3.58
2022-10-07T18:56:48.421Z,3.28
2022-10-07T18:59:17.127Z,3.58
2022-10-07T19:01:49.860Z,3.38
2022-10-07T19:04:19.381Z,3.50
2022-10-07T19:06:47.859Z,3.83
2022-10-07T19:09:21.164Z,2.20
2022-10-07T19:11:49.308Z,2.90
2022-10-07T19:14:16.875Z,3.22
2022-10-07T19:16:49.265Z,4.05
2022-10-07T19:19:21.599Z,3.17
2022-10-07T19:21:51.642Z,2.95
2022-10-07T19:24:20.071Z,2.90
2022-10-07T19:26:49.967Z,2.92
2022-10-07T19:29:18.333Z,3.17
2022-10-07T19:31:48.737Z,3.95
2022-10-07T19:34:19.922Z,2.97
2022-10-07T19:36:48.535Z,3.25
2022-10-07T19:39:18.326Z,3.22
2022-10-07T19:41:46.569Z,4.43
2022-10-07T19:46:41.648Z,4.57
2022-10-07T19:49:10.107Z,4.60
2022-10-07T19:51:38.845Z,3.88
2022-10-07T19:54:11.911Z,3.95
2022-10-07T19:56:40.831Z,3.97
2022-10-07T19:59:11.754Z,4.20
2022-10-07T20:01:44.412Z,4.38
2022-10-07T20:04:15.799Z,5.65
2022-10-07T20:06:43.783Z,5.20
2022-10-07T20:09:13.941Z,5.28
2022-10-07T20:11:41.614Z,5.10
2022-10-07T20:14:10.022Z,4.13
2022-10-07T20:16:38.982Z,4.15
2022-10-07T20:19:10.908Z,3.97
2022-10-07T20:21:39.293Z,4.32
2022-10-07T20:26:37.406Z,4.55
2022-10-07T20:29:07.249Z,4.70
2022-10-07T20:31:38.908Z,4.82
2022-10-07T20:34:08.132Z,5.40
2022-10-07T20:36:37.920Z,4.35
2022-10-07T20:39:38.514Z,4.20
2022-10-07T20:42:22.382Z,4.38
2022-10-07T20:44:51.423Z,4.40
2022-10-07T20:47:20.428Z,4.10
2022-10-07T20:49:50.498Z,4.40
2022-10-07T20:52:20.870Z,3.80
2022-10-07T20:54:49.271Z,3.78
2022-10-07T20:57:23.680Z,4.43
2022-10-07T20:59:51.358Z,4.22
2022-10-07T21:02:21.267Z,4.75
2022-10-07T21:04:48.895Z,4.32
2022-10-07T21:07:17.751Z,4.63
2022-10-07T21:09:46.329Z,3.83
2022-10-07T21:12:16.100Z,4.00
2022-10-07T21:14:44.303Z,4.18
2022-10-07T21:17:12.322Z,4.18
2022-10-07T21:19:40.147Z,4.40
2022-10-07T21:22:08.224Z,4.38
2022-10-07T21:24:35.727Z,3.85
2022-10-07T21:27:05.365Z,4.43
2022-10-07T21:29:36.381Z,4.13
2022-10-07T21:32:09.272Z,3.65
2022-10-07T21:34:37.806Z,4.03
2022-10-07T21:37:05.353Z,4.20
2022-10-07T21:39:32.847Z,3.97
2022-10-07T21:42:00.356Z,4.45
2022-10-07T21:44:28.964Z,4.35
2022-10-07T21:47:00.003Z,4.20
2022-10-07T21:49:27.580Z,4.35
2022-10-07T21:52:04.284Z,4.25
2022-10-07T21:54:31.848Z,4.50
2022-10-07T21:56:59.338Z,4.28
2022-10-07T21:59:26.956Z,4.97
2022-10-07T22:01:54.518Z,4.18
2022-10-07T22:04:22.094Z,4.70
2022-10-07T22:07:08.118Z,4.68
2022-10-07T22:09:35.796Z,4.10
2022-10-07T22:12:03.409Z,5.03
2022-10-07T22:14:30.808Z,4.97
2022-10-07T22:16:58.270Z,4.70
2022-10-07T22:19:25.654Z,5.03
2022-10-07T22:21:53.199Z,4.55
2022-10-07T22:24:20.776Z,4.60
2022-10-07T22:26:48.477Z,4.90
2022-10-07T22:29:17.585Z,4.32
2022-10-07T22:31:45.438Z,4.53
2022-10-07T22:34:33.199Z,4.40
2022-10-07T22:37:01.059Z,4.70
2022-10-07T22:39:28.744Z,4.20
2022-10-07T22:41:57.732Z,5.20
2022-10-07T22:44:28.573Z,5.10
2022-10-07T22:46:59.251Z,4.80
2022-10-07T22:49:57.912Z,5.60
2022-10-07T22:52:25.525Z,5.38
2022-10-07T22:54:52.975Z,5.22
2022-10-07T22:57:20.466Z,4.95
2022-10-07T22:59:47.994Z,4.88
2022-10-07T23:02:15.490Z,5.22
2022-10-07T23:04:42.917Z,5.30
2022-10-07T23:07:10.776Z,5.30
2022-10-07T23:09:38.281Z,5.20
2022-10-07T23:12:06.403Z,4.80
2022-10-07T23:14:33.886Z,5.10
2022-10-07T23:17:01.595Z,4.68
2022-10-07T23:19:29.014Z,5.45
2022-10-07T23:21:56.524Z,5.57
2022-10-07T23:24:24.023Z,5.18
2022-10-07T23:26:51.459Z,5.28
2022-10-07T23:29:20.484Z,5.68
2022-10-07T23:31:48.061Z,5.63
2022-10-07T23:34:15.533Z,5.28
2022-10-07T23:36:43.090Z,5.22
2022-10-07T23:39:11.061Z,5.53
2022-10-07T23:41:38.488Z,5.40
2022-10-07T23:44:06.146Z,5.95
2022-10-07T23:46:35.846Z,5.32
2022-10-07T23:49:04.439Z,6.00
2022-10-07T23:51:33.246Z,5.82
2022-10-07T23:54:02.809Z,5.35
2022-10-07T23:56:31.231Z,6.20
2022-10-07T23:58:58.782Z,5.85
